Time;durP1;ratioP1;P1;durP2;ratioP2;P2;SDS_P1;SDS_P2;PMS_P1;PMS_P2;Temp;Humidity;BMP_temperature;BMP_pressure;BME280_temperature;BME280_humidity;BME280_pressure;Samples;Min_cycle;Max_cycle;Signal;HPM_P1;HPM_P2
2023/12/20 00:02:11;;;;;;;6.05;2.67;;;;;;;10.85;69.21;100612.94;5018471;28;20077;-41
2023/12/20 00:04:37;;;;;;;6.05;3.05;;;;;;;10.90;69.15;100608.25;5017064;28;20120;-39
2023/12/20 00:07:02;;;;;;;3.83;2.22;;;;;;;10.70;69.02;100611.25;5023156;28;20029;-40
2023/12/20 00:09:28;;;;;;;4.40;2.70;;;;;;;10.74;69.64;100605.69;5022873;28;20025;-41
2023/12/20 00:11:53;;;;;;;5.65;3.35;;;;;;;10.73;69.67;100606.66;5023208;28;20032;-40
2023/12/20 00:14:18;;;;;;;5.32;2.75;;;;;;;10.86;69.76;100604.13;5024007;28;20664;-39
2023/12/20 00:16:44;;;;;;;5.60;3.00;;;;;;;10.71;69.61;100599.78;5023666;28;20029;-40
2023/12/20 00:19:12;;;;;;;5.53;3.00;;;;;;;10.82;69.64;100592.06;5020084;28;20072;-39
2023/12/20 00:21:37;;;;;;;5.35;3.22;;;;;;;10.79;69.79;100593.13;5019410;28;20048;-39
2023/12/20 00:24:05;;;;;;;5.78;3.45;;;;;;;10.75;70.02;100598.66;5024815;28;20086;-39
2023/12/20 00:26:31;;;;;;;8.10;3.53;;;;;;;10.63;70.43;100592.34;5025537;28;20048;-39
2023/12/20 00:28:56;;;;;;;9.18;3.55;;;;;;;10.61;70.31;100592.47;5025141;28;20060;-40
2023/12/20 00:31:24;;;;;;;4.60;2.78;;;;;;;10.76;70.16;100600.34;5022203;28;20128;-39
2023/12/20 00:33:51;;;;;;;4.03;2.38;;;;;;;10.79;70.09;100590.47;5017783;28;20034;-39
2023/12/20 00:36:17;;;;;;;4.80;2.90;;;;;;;10.72;70.29;100591.81;5005885;28;20120;-40
2023/12/20 00:38:42;;;;;;;4.22;2.47;;;;;;;10.84;69.91;100584.94;5028836;28;20021;-40
2023/12/20 00:41:07;;;;;;;5.80;2.78;;;;;;;10.77;70.23;100588.91;5025049;28;20037;-40
2023/12/20 00:43:33;;;;;;;4.43;2.60;;;;;;;10.95;69.83;100577.25;5020449;28;20052;-39
2023/12/20 00:45:59;;;;;;;2.80;1.98;;;;;;;10.57;70.72;100592.75;5017696;28;20152;-40
2023/12/20 00:48:26;;;;;;;4.32;2.00;;;;;;;10.38;71.55;100604.34;5028132;28;20562;-40
2023/12/20 00:50:52;;;;;;;2.42;1.40;;;;;;;10.43;71.14;100593.56;5026150;28;20036;-39
2023/12/20 00:53:17;;;;;;;2.25;1.20;;;;;;;10.49;70.35;100598.47;5025339;28;20033;-38
2023/12/20 00:55:44;;;;;;;1.50;0.88;;;;;;;10.40;71.05;100580.56;5027248;28;20045;-40
2023/12/20 00:58:10;;;;;;;2.97;1.38;;;;;;;10.29;70.72;100589.94;5025961;28;20146;-41
2023/12/20 01:00:35;;;;;;;2.88;0.90;;;;;;;10.53;69.70;100592.06;5020641;28;20973;-39
2023/12/20 01:03:00;;;;;;;1.88;0.85;;;;;;;10.57;70.05;100583.06;5023561;28;20095;-39
2023/12/20 01:05:26;;;;;;;2.05;1.10;;;;;;;10.76;69.51;100587.19;5024348;28;20026;-39
2023/12/20 01:07:51;;;;;;;2.90;1.48;;;;;;;10.65;69.67;100580.81;5023881;28;20037;-40
2023/12/20 01:10:17;;;;;;;1.90;1.10;;;;;;;10.57;69.31;100582.22;5025268;28;20052;-41
2023/12/20 01:12:43;;;;;;;4.25;1.30;;;;;;;10.52;69.28;100590.38;5024856;28;20030;-41
2023/12/20 01:15:09;;;;;;;2.22;1.23;;;;;;;10.70;68.65;100595.47;5023013;28;20060;-40
2023/12/20 01:17:34;;;;;;;2.15;1.00;;;;;;;10.61;68.51;100581.94;5022973;28;20053;-41
2023/12/20 01:19:59;;;;;;;3.35;0.73;;;;;;;10.56;68.12;100586.63;5026719;28;20072;-39
2023/12/20 01:22:25;;;;;;;1.52;0.80;;;;;;;10.26;68.22;100587.47;5020692;28;20033;-42
2023/12/20 01:24:51;;;;;;;1.52;0.70;;;;;;;10.23;68.55;100592.91;5020175;28;20033;-39
2023/12/20 01:27:16;;;;;;;1.52;0.60;;;;;;;10.40;68.04;100584.06;5021736;28;20060;-39
2023/12/20 01:29:42;;;;;;;3.80;0.80;;;;;;;10.42;67.79;100590.09;5026775;28;20029;-39
2023/12/20 01:32:07;;;;;;;2.38;0.90;;;;;;;10.42;67.66;100581.34;5021230;28;23478;-39
2023/12/20 01:34:32;;;;;;;2.80;0.70;;;;;;;10.40;67.57;100588.47;5026999;28;20033;-39
2023/12/20 01:36:58;;;;;;;3.35;0.68;;;;;;;9.99;68.02;100590.78;5022215;28;20029;-39
2023/12/20 01:39:23;;;;;;;1.17;0.68;;;;;;;10.05;67.25;100592.22;5019536;28;20133;-39
2023/12/20 01:41:49;;;;;;;2.03;0.70;;;;;;;10.12;67.54;100590.06;5030100;28;20037;-39
2023/12/20 01:44:14;;;;;;;7.97;1.23;;;;;;;10.25;67.26;100588.41;5024415;28;20033;-39
2023/12/20 01:46:40;;;;;;;1.23;0.40;;;;;;;10.30;67.37;100585.50;5027253;28;20037;-39
2023/12/20 01:49:06;;;;;;;2.78;0.68;;;;;;;10.39;66.86;100586.78;5025322;28;20533;-39
2023/12/20 01:51:33;;;;;;;2.50;0.73;;;;;;;10.36;66.78;100588.63;5022974;28;20045;-39
2023/12/20 01:54:00;;;;;;;1.35;0.40;;;;;;;9.99;66.23;100577.66;5024447;28;20069;-39
2023/12/20 01:56:27;;;;;;;1.42;0.60;;;;;;;10.34;65.87;100574.72;5014505;28;20113;-39
2023/12/20 01:58:53;;;;;;;1.77;0.50;;;;;;;10.37;65.07;100577.16;5016317;28;20120;-39
2023/12/20 02:01:19;;;;;;;2.40;0.50;;;;;;;10.47;65.34;100577.50;5025416;28;20766;-39
2023/12/20 02:03:45;;;;;;;1.85;0.40;;;;;;;10.22;65.58;100583.31;5035197;28;20107;-39
2023/12/20 02:06:11;;;;;;;1.58;0.30;;;;;;;10.25;65.37;100583.16;5029848;28;20037;-39
2023/12/20 02:08:36;;;;;;;2.17;1.38;;;;;;;10.27;65.68;100576.03;5028736;28;20033;-39
2023/12/20 02:11:02;;;;;;;1.15;0.70;;;;;;;10.14;65.57;100573.25;5022117;28;20045;-39
2023/12/20 02:13:27;;;;;;;2.88;0.52;;;;;;;9.96;66.27;100575.19;5022866;28;20102;-39
2023/12/20 02:15:54;;;;;;;3.15;0.65;;;;;;;10.02;66.49;100569.59;5022669;28;20025;-41
2023/12/20 02:18:19;;;;;;;1.50;0.38;;;;;;;9.95;66.75;100576.13;5027347;28;20646;-39
2023/12/20 02:20:44;;;;;;;2.10;0.60;;;;;;;9.80;67.53;100588.38;5023547;28;20108;-40
2023/12/20 02:23:10;;;;;;;1.25;0.50;;;;;;;9.90;67.27;100583.44;4998374;28;20111;-40
2023/12/20 02:25:36;;;;;;;5.88;0.73;;;;;;;9.95;66.89;100577.91;5017147;28;20041;-41
2023/12/20 02:28:02;;;;;;;3.58;0.47;;;;;;;10.03;67.19;100576.53;5024574;28;20037;-40
2023/12/20 02:30:27;;;;;;;0.80;0.43;;;;;;;10.26;66.80;100569.06;5022121;28;20049;-40
2023/12/20 02:32:53;;;;;;;8.02;0.60;;;;;;;10.36;66.30;100572.84;5020552;28;20033;-41
2023/12/20 02:35:19;;;;;;;1.77;0.80;;;;;;;10.03;66.85;100578.31;5018619;28;20524;-40
2023/12/20 02:37:44;;;;;;;1.33;1.15;;;;;;;9.98;67.02;100580.38;5015913;28;20029;-40
2023/12/20 02:40:10;;;;;;;2.22;0.80;;;;;;;9.94;67.11;100577.06;5032844;28;20036;-40
2023/12/20 02:42:35;;;;;;;1.92;0.55;;;;;;;10.18;66.44;100577.41;5022065;28;20495;-39
2023/12/20 02:45:01;;;;;;;1.30;0.40;;;;;;;9.87;67.13;100579.19;5022814;28;20048;-40
2023/12/20 02:47:29;;;;;;;3.08;1.05;;;;;;;9.96;67.02;100572.56;5021048;28;20045;-40
2023/12/20 02:49:55;;;;;;;1.25;0.50;;;;;;;9.89;67.26;100568.59;5021933;28;20220;-40
2023/12/20 02:52:20;;;;;;;0.90;0.65;;;;;;;10.03;66.89;100578.31;5020171;28;20495;-40
2023/12/20 02:54:45;;;;;;;5.57;0.63;;;;;;;9.96;66.91;100576.97;5017924;28;20057;-41
2023/12/20 02:57:11;;;;;;;1.60;0.60;;;;;;;9.88;67.06;100572.16;5022744;28;20025;-41
2023/12/20 02:59:36;;;;;;;4.22;0.57;;;;;;;9.68;66.62;100570.69;5023175;28;20041;-40
2023/12/20 03:02:02;;;;;;;2.90;0.60;;;;;;;9.60;67.39;100557.97;5023931;28;20029;-40
2023/12/20 03:04:27;;;;;;;1.88;0.50;;;;;;;9.40;68.28;100574.84;5014399;28;20044;-40
2023/12/20 03:06:52;;;;;;;1.88;0.40;;;;;;;9.52;67.72;100563.66;5021757;28;20064;-40
2023/12/20 03:09:18;;;;;;;1.10;0.65;;;;;;;9.38;68.44;100566.19;5025877;28;20380;-39
2023/12/20 03:11:43;;;;;;;7.75;0.50;;;;;;;9.63;67.42;100564.84;5015173;28;20837;-40
2023/12/20 03:14:09;;;;;;;0.73;0.35;;;;;;;9.92;66.39;100560.50;5022559;28;20048;-40
2023/12/20 03:16:34;;;;;;;4.40;0.55;;;;;;;9.85;66.53;100553.94;5018142;28;20033;-40
2023/12/20 03:18:59;;;;;;;3.03;0.77;;;;;;;9.63;67.15;100560.41;5024781;28;20033;-41
2023/12/20 03:21:25;;;;;;;4.63;0.75;;;;;;;9.89;66.84;100552.84;5022984;28;20056;-39
2023/12/20 03:23:50;;;;;;;1.73;0.60;;;;;;;9.67;67.33;100559.31;5022696;28;20683;-40
2023/12/20 03:26:16;;;;;;;3.67;0.63;;;;;;;9.85;67.07;100559.19;5019012;28;20040;-41
2023/12/20 03:28:41;;;;;;;3.10;0.88;;;;;;;9.41;67.36;100558.16;5018671;28;20056;-40
2023/12/20 03:31:07;;;;;;;0.60;0.57;;;;;;;9.62;67.36;100553.47;5023577;28;20591;-39
2023/12/20 03:33:32;;;;;;;4.85;0.90;;;;;;;9.41;67.60;100561.63;5021987;28;20040;-41
2023/12/20 03:35:57;;;;;;;1.95;0.70;;;;;;;9.81;67.18;100557.66;5019296;28;20025;-39
2023/12/20 03:38:26;;;;;;;4.10;1.35;;;;;;;9.63;67.56;100555.16;5016499;28;20120;-41
2023/12/20 03:40:51;;;;;;;4.03;0.90;;;;;;;9.46;67.71;100559.56;5022084;28;20025;-40
2023/12/20 03:43:17;;;;;;;2.63;0.52;;;;;;;9.41;67.36;100556.38;5019286;28;21271;-38
2023/12/20 03:45:42;;;;;;;2.78;0.65;;;;;;;9.51;67.15;100561.97;5016160;28;20514;-38
2023/12/20 03:48:08;;;;;;;0.70;0.50;;;;;;;9.61;67.17;100565.75;5022116;28;20476;-39
2023/12/20 03:50:34;;;;;;;2.83;0.70;;;;;;;9.53;67.26;100569.75;5018868;28;20103;-41
2023/12/20 03:52:59;;;;;;;3.92;0.70;;;;;;;9.51;67.76;100556.72;5031500;28;20032;-38
2023/12/20 03:55:25;;;;;;;2.67;0.75;;;;;;;9.55;67.27;100555.59;5024253;28;20034;-40
2023/12/20 03:57:50;;;;;;;2.67;0.95;;;;;;;9.66;67.21;100552.38;5019916;28;20039;-40
2023/12/20 04:00:15;;;;;;;2.17;0.70;;;;;;;9.63;66.56;100549.06;5018343;28;20088;-39
2023/12/20 04:02:42;;;;;;;2.63;0.73;;;;;;;9.88;65.76;100548.50;5020795;28;20040;-40
2023/12/20 04:05:09;;;;;;;4.20;0.73;;;;;;;9.66;66.45;100552.38;5022028;28;20104;-40
2023/12/20 04:07:39;;;;;;;6.03;1.80;;;;;;;9.44;66.78;100539.59;5020955;28;20044;-40
2023/12/20 04:10:05;;;;;;;2.60;1.05;;;;;;;9.64;66.38;100545.50;5023331;28;20120;-41
2023/12/20 04:12:31;;;;;;;2.15;0.80;;;;;;;9.50;67.11;100535.78;5015921;28;20808;-40
2023/12/20 04:14:57;;;;;;;1.90;0.52;;;;;;;9.41;67.13;100540.63;5013228;28;20036;-41
2023/12/20 04:17:23;;;;;;;3.08;0.80;;;;;;;9.60;66.70;100544.84;5020388;28;20064;-42
2023/12/20 04:19:49;;;;;;;1.02;0.65;;;;;;;9.68;66.87;100542.63;5020156;28;20041;-42
2023/12/20 04:22:14;;;;;;;3.88;0.95;;;;;;;9.59;66.92;100551.03;5020041;28;20029;-42
2023/12/20 04:24:42;;;;;;;1.80;0.80;;;;;;;9.65;67.32;100541.94;5016434;28;20047;-40
2023/12/20 04:27:08;;;;;;;4.25;0.80;;;;;;;9.79;66.18;100531.50;5013221;28;20033;-41
2023/12/20 04:29:33;;;;;;;2.75;0.80;;;;;;;9.69;66.02;100536.44;5016991;28;20028;-42
2023/12/20 04:31:58;;;;;;;3.05;0.80;;;;;;;9.54;65.94;100534.69;5020938;28;20033;-40
2023/12/20 04:34:24;;;;;;;2.55;0.80;;;;;;;9.48;66.08;100535.00;5025219;28;20034;-40
2023/12/20 04:36:49;;;;;;;3.55;0.65;;;;;;;9.68;65.77;100528.66;5020993;28;20049;-42
2023/12/20 04:39:15;;;;;;;1.73;1.02;;;;;;;9.69;65.23;100525.91;5023146;28;20037;-40
2023/12/20 04:41:40;;;;;;;5.97;0.90;;;;;;;9.52;65.35;100531.28;5021856;28;20234;-41
2023/12/20 04:44:06;;;;;;;2.30;0.98;;;;;;;9.56;65.16;100527.56;5016986;28;20056;-41
2023/12/20 04:46:33;;;;;;;5.47;1.23;;;;;;;9.53;65.03;100525.09;5019207;28;20033;-40
2023/12/20 04:48:59;;;;;;;3.67;0.70;;;;;;;9.39;65.22;100526.72;5022669;28;20033;-41
2023/12/20 04:51:24;;;;;;;4.25;0.80;;;;;;;9.35;65.22;100525.19;5022302;28;20035;-41
2023/12/20 04:53:50;;;;;;;4.90;0.65;;;;;;;9.28;65.61;100510.75;5022813;28;20025;-41
2023/12/20 04:56:15;;;;;;;4.25;0.95;;;;;;;9.51;65.35;100514.69;5016212;28;20040;-40
2023/12/20 04:58:42;;;;;;;9.18;2.33;;;;;;;9.46;65.01;100512.31;5018077;28;20064;-40
2023/12/20 05:01:08;;;;;;;2.78;0.70;;;;;;;9.65;65.22;100523.56;5019055;28;20041;-41
2023/12/20 05:03:34;;;;;;;3.08;0.63;;;;;;;9.49;65.11;100515.69;5017637;28;20026;-41
2023/12/20 05:05:59;;;;;;;6.15;0.88;;;;;;;9.45;65.21;100515.03;5020874;28;20440;-41
2023/12/20 05:08:25;;;;;;;3.92;0.73;;;;;;;9.39;65.39;100505.72;5015630;28;20470;-42
2023/12/20 05:10:54;;;;;;;6.57;1.00;;;;;;;9.45;65.60;100510.59;5017033;28;20044;-43
2023/12/20 05:13:19;;;;;;;9.95;1.17;;;;;;;8.89;66.59;100517.25;5017387;28;20037;-41
2023/12/20 05:15:45;;;;;;;6.05;1.20;;;;;;;8.98;66.55;100508.88;5021378;28;20064;-41
2023/12/20 05:18:10;;;;;;;4.60;1.08;;;;;;;9.29;65.86;100509.81;5018887;28;20495;-41
2023/12/20 05:20:35;;;;;;;6.55;0.90;;;;;;;9.54;65.65;100519.75;5018418;28;20125;-39
2023/12/20 05:23:01;;;;;;;2.58;1.02;;;;;;;8.89;66.82;100514.63;5019367;28;20044;-41
2023/12/20 05:25:26;;;;;;;9.95;1.73;;;;;;;8.90;66.83;100522.41;5020328;28;20029;-42
2023/12/20 05:27:52;;;;;;;8.75;1.63;;;;;;;9.08;66.40;100522.31;5020128;28;20033;-40
2023/12/20 05:30:18;;;;;;;8.95;1.67;;;;;;;9.03;66.92;100522.59;5018095;28;20052;-39
2023/12/20 05:32:43;;;;;;;7.47;1.48;;;;;;;9.18;66.48;100501.66;5011742;28;20125;-39
2023/12/20 05:35:08;;;;;;;12.38;2.42;;;;;;;9.22;66.12;100501.44;5019863;28;20037;-40
2023/12/20 05:37:34;;;;;;;6.45;1.60;;;;;;;8.96;66.44;100503.69;5026551;28;20396;-39
2023/12/20 05:39:59;;;;;;;7.57;2.13;;;;;;;8.84;66.82;100500.00;5024121;28;20072;-39
2023/12/20 05:42:24;;;;;;;6.30;1.60;;;;;;;8.82;66.48;100500.97;5025118;28;20059;-39
2023/12/20 05:44:50;;;;;;;8.93;2.00;;;;;;;8.90;66.28;100501.44;5023819;28;20030;-39
2023/12/20 05:47:15;;;;;;;5.20;1.75;;;;;;;9.18;66.10;100491.16;5026101;28;20033;-39
2023/12/20 05:49:41;;;;;;;4.10;1.42;;;;;;;9.08;65.78;100496.06;5025284;28;20064;-39
2023/12/20 05:52:06;;;;;;;5.97;1.80;;;;;;;9.21;65.15;100491.00;5024818;28;20148;-39
2023/12/20 05:54:31;;;;;;;5.65;1.48;;;;;;;9.18;65.18;100488.53;5021317;28;20428;-39
2023/12/20 05:56:57;;;;;;;8.18;1.45;;;;;;;9.10;65.38;100481.94;5027609;28;20029;-39
2023/12/20 05:59:22;;;;;;;6.55;1.75;;;;;;;9.20;65.59;100484.06;5028919;28;20079;-39
2023/12/20 06:01:48;;;;;;;5.80;1.60;;;;;;;9.08;65.47;100482.94;5030137;28;20491;-39
2023/12/20 06:04:13;;;;;;;11.63;2.60;;;;;;;9.19;65.11;100480.59;5023497;28;20030;-39
2023/12/20 06:06:44;;;;;;;6.82;1.65;;;;;;;9.14;64.82;100483.47;5020516;28;20076;-39
2023/12/20 06:09:10;;;;;;;8.45;2.30;;;;;;;8.98;64.68;100478.22;5021345;28;20048;-39
2023/12/20 06:11:35;;;;;;;6.03;1.83;;;;;;;9.05;64.94;100473.47;5025171;28;20484;-40
2023/12/20 06:14:00;;;;;;;12.75;3.13;;;;;;;9.20;65.07;100468.31;5024461;28;20021;-40
2023/12/20 06:16:26;;;;;;;10.07;2.47;;;;;;;9.14;65.07;100466.88;5021865;28;20124;-40
2023/12/20 06:18:51;;;;;;;6.18;2.20;;;;;;;9.03;64.86;100464.00;5026574;28;20732;-39
2023/12/20 06:21:17;;;;;;;5.57;2.05;;;;;;;9.13;65.29;100458.16;5020422;28;20068;-40
2023/12/20 06:23:42;;;;;;;8.75;1.77;;;;;;;9.14;64.93;100456.38;5022423;28;20030;-40
2023/12/20 06:26:07;;;;;;;10.02;2.15;;;;;;;9.03;64.88;100464.84;5020461;28;20443;-39
2023/12/20 06:28:33;;;;;;;12.55;2.30;;;;;;;8.93;64.59;100461.03;5021008;28;20060;-40
2023/12/20 06:31:00;;;;;;;5.07;1.08;;;;;;;9.10;65.02;100453.09;5014226;28;20048;-39
2023/12/20 06:33:31;;;;;;;6.28;2.10;;;;;;;9.13;64.71;100457.31;5021684;28;20488;-39
2023/12/20 06:35:57;;;;;;;9.63;1.50;;;;;;;9.13;64.68;100455.53;5022467;28;20060;-40
2023/12/20 06:38:22;;;;;;;5.18;1.33;;;;;;;9.00;64.47;100454.50;5023768;28;20034;-39
2023/12/20 06:40:48;;;;;;;7.15;1.23;;;;;;;9.15;65.09;100448.41;5020882;28;20048;-40
2023/12/20 06:43:13;;;;;;;8.05;1.65;;;;;;;9.15;65.17;100458.06;5022788;28;20036;-40
2023/12/20 06:45:38;;;;;;;4.70;1.27;;;;;;;8.94;64.99;100460.13;5022778;28;20021;-39
2023/12/20 06:48:04;;;;;;;5.68;1.65;;;;;;;9.03;64.87;100458.75;5023332;28;20029;-39
2023/12/20 06:50:30;;;;;;;4.07;1.20;;;;;;;8.98;64.91;100446.72;5022954;28;20029;-40
2023/12/20 06:52:55;;;;;;;8.13;1.38;;;;;;;9.11;65.30;100454.78;5026152;28;20151;-40
2023/12/20 06:55:21;;;;;;;3.60;1.05;;;;;;;9.09;65.13;100451.38;5023392;28;20400;-39
2023/12/20 06:57:46;;;;;;;6.35;1.10;;;;;;;8.82;65.27;100454.63;5021562;28;20030;-39
2023/12/20 07:00:12;;;;;;;4.10;0.98;;;;;;;8.94;65.53;100447.81;5018759;28;20481;-40
2023/12/20 07:02:37;;;;;;;9.20;1.50;;;;;;;9.03;65.57;100458.75;5023275;28;20037;-40
2023/12/20 07:05:04;;;;;;;6.60;1.10;;;;;;;8.74;66.03;100456.78;5021967;28;20056;-40
2023/12/20 07:07:29;;;;;;;10.00;1.40;;;;;;;8.85;65.86;100453.59;5016650;28;20087;-39
2023/12/20 07:09:55;;;;;;;7.63;1.35;;;;;;;8.83;65.83;100456.31;5025162;28;20076;-39
2023/12/20 07:12:20;;;;;;;7.70;2.00;;;;;;;8.75;66.18;100441.91;5023947;28;20108;-40
2023/12/20 07:14:48;;;;;;;6.00;1.23;;;;;;;8.84;65.80;100442.28;5024228;28;20145;-39
2023/12/20 07:17:15;;;;;;;4.80;1.13;;;;;;;8.85;66.26;100429.97;5013814;28;20030;-40
2023/12/20 07:19:41;;;;;;;4.03;1.13;;;;;;;8.94;65.63;100441.75;5019503;28;20083;-39
2023/12/20 07:22:07;;;;;;;14.55;2.25;;;;;;;8.76;66.62;100441.00;5024262;28;20033;-40
2023/12/20 07:24:33;;;;;;;6.72;1.27;;;;;;;8.69;65.88;100437.88;5021210;28;20092;-40
2023/12/20 07:27:00;;;;;;;2.60;1.17;;;;;;;8.90;66.24;100445.47;5022594;28;20049;-39
2023/12/20 07:29:25;;;;;;;10.43;1.65;;;;;;;8.81;65.88;100437.19;5023633;28;20051;-40
2023/12/20 07:31:52;;;;;;;5.03;1.33;;;;;;;8.83;66.00;100439.72;5017088;28;20420;-40
2023/12/20 07:34:17;;;;;;;11.82;1.73;;;;;;;8.66;65.76;100443.28;5021877;28;20033;-40
2023/12/20 07:36:43;;;;;;;9.60;1.48;;;;;;;8.69;65.97;100437.88;5022208;28;20037;-40
2023/12/20 07:39:08;;;;;;;6.90;1.40;;;;;;;8.74;65.62;100446.31;4991921;28;20507;-40
2023/12/20 07:41:33;;;;;;;8.30;1.40;;;;;;;8.75;66.05;100447.16;5023560;28;20102;-40
2023/12/20 07:43:59;;;;;;;6.30;1.27;;;;;;;8.71;65.81;100448.25;5015949;28;20045;-40
2023/12/20 07:46:24;;;;;;;12.13;1.58;;;;;;;8.79;65.44;100454.78;5016086;28;20038;-41
2023/12/20 07:48:49;;;;;;;4.30;1.35;;;;;;;8.73;65.64;100455.09;5021522;28;20061;-40
2023/12/20 07:51:15;;;;;;;10.43;1.17;;;;;;;8.84;65.25;100442.28;5022749;28;20037;-40
2023/12/20 07:53:40;;;;;;;5.32;1.23;;;;;;;8.81;65.86;100445.06;5017736;28;20029;-40
2023/12/20 07:56:19;;;;;;;7.05;1.40;;;;;;;8.72;65.77;100442.91;5022575;28;20068;-40
2023/12/20 07:58:48;;;;;;;7.55;1.52;;;;;;;8.85;65.55;100438.69;5030771;28;20171;-39
2023/12/20 08:01:13;;;;;;;9.85;1.48;;;;;;;8.69;65.85;100445.72;5025401;28;24180;-39
2023/12/20 08:03:39;;;;;;;11.27;1.42;;;;;;;8.66;65.67;100436.22;5026655;28;20499;-39
2023/12/20 08:06:04;;;;;;;5.30;1.17;;;;;;;8.82;65.51;100431.00;5022269;28;20072;-39
2023/12/20 08:08:30;;;;;;;4.90;1.08;;;;;;;8.72;65.50;100432.41;5021985;28;20057;-39
2023/12/20 08:10:57;;;;;;;5.88;1.83;;;;;;;8.59;66.17;100429.66;5020493;28;20064;-40
2023/12/20 08:13:25;;;;;;;9.70;2.15;;;;;;;8.62;65.61;100436.50;5024123;28;20021;-39
2023/12/20 08:15:51;;;;;;;6.30;1.05;;;;;;;8.90;65.59;100429.72;5019044;28;20064;-40
2023/12/20 08:18:16;;;;;;;11.10;1.30;;;;;;;8.83;65.37;100435.31;5022062;28;20271;-39
2023/12/20 08:20:42;;;;;;;8.63;1.35;;;;;;;8.72;65.75;100426.34;5023695;28;20076;-39
2023/12/20 08:23:10;;;;;;;9.55;1.35;;;;;;;8.92;65.21;100425.22;5024213;28;20077;-40
2023/12/20 08:25:36;;;;;;;14.45;2.10;;;;;;;8.89;65.39;100425.41;5026735;28;20450;-39
2023/12/20 08:28:03;;;;;;;7.85;1.30;;;;;;;9.01;64.96;100424.72;5025642;28;20550;-40
2023/12/20 08:30:30;;;;;;;9.98;2.13;;;;;;;8.97;65.38;100420.59;5022315;28;20030;-39
2023/12/20 08:32:56;;;;;;;3.58;1.63;;;;;;;8.78;65.33;100418.97;5023466;28;20752;-39
2023/12/20 08:35:22;;;;;;;10.45;1.33;;;;;;;8.92;65.71;100426.09;5027760;28;20036;-39
2023/12/20 08:37:47;;;;;;;11.88;1.60;;;;;;;8.83;65.48;100416.97;5021221;28;20057;-39
2023/12/20 08:40:13;;;;;;;10.23;1.75;;;;;;;8.85;65.45;100404.56;5027364;28;20032;-40
2023/12/20 08:42:41;;;;;;;10.20;2.92;;;;;;;8.71;65.83;100415.00;5023748;28;20025;-39
2023/12/20 08:45:06;;;;;;;5.82;1.70;;;;;;;8.82;65.68;100412.63;5019581;28;20033;-39
2023/12/20 08:47:32;;;;;;;8.40;1.27;;;;;;;8.66;66.39;100411.78;5038387;28;20047;-39
2023/12/20 08:49:59;;;;;;;8.35;2.15;;;;;;;8.81;65.86;100405.69;5022678;28;20117;-39
2023/12/20 08:52:27;;;;;;;7.28;1.60;;;;;;;8.89;65.81;100400.03;5029185;28;20083;-39
2023/12/20 08:54:53;;;;;;;7.47;1.98;;;;;;;8.85;65.98;100396.69;5018851;28;20181;-39
2023/12/20 08:57:23;;;;;;;6.10;1.67;;;;;;;8.88;66.24;100402.72;5022195;28;20029;-40
2023/12/20 08:59:49;;;;;;;5.65;1.42;;;;;;;8.93;65.90;100387.56;5019544;28;20431;-40
2023/12/20 09:02:16;;;;;;;6.43;1.83;;;;;;;8.88;66.10;100389.59;5015867;28;20056;-40
2023/12/20 09:04:41;;;;;;;9.40;1.85;;;;;;;8.71;66.38;100388.75;5022257;28;20104;-39
2023/12/20 09:07:07;;;;;;;4.68;1.02;;;;;;;8.69;66.77;100388.03;5028120;28;20133;-40
2023/12/20 09:09:33;;;;;;;6.15;1.85;;;;;;;8.97;66.21;100389.09;5025014;28;20124;-39
2023/12/20 09:11:59;;;;;;;4.38;1.17;;;;;;;8.81;66.46;100384.72;5024825;28;20120;-39
2023/12/20 09:14:24;;;;;;;12.57;1.77;;;;;;;8.81;66.12;100400.44;5026410;28;20056;-40
2023/12/20 09:16:51;;;;;;;6.30;1.55;;;;;;;9.05;65.90;100396.53;5029546;28;20464;-39
2023/12/20 09:19:17;;;;;;;7.53;2.67;;;;;;;8.82;66.65;100401.28;5025207;28;20075;-40
2023/12/20 09:21:42;;;;;;;11.32;1.80;;;;;;;8.88;66.06;100392.22;5025486;28;20033;-40
2023/12/20 09:24:08;;;;;;;10.75;1.30;;;;;;;8.77;65.80;100398.91;5024279;28;20052;-39
2023/12/20 09:26:34;;;;;;;11.20;2.50;;;;;;;9.07;66.33;100390.25;5026255;28;20041;-40
2023/12/20 09:29:00;;;;;;;4.43;1.52;;;;;;;9.01;65.71;100390.59;5026293;28;20044;-40
2023/12/20 09:31:25;;;;;;;6.10;1.75;;;;;;;9.16;66.04;100386.25;5027126;28;20467;-40
2023/12/20 09:33:50;;;;;;;15.60;1.88;;;;;;;8.82;65.84;100389.03;5023723;28;20492;-39
2023/12/20 09:36:18;;;;;;;6.10;1.90;;;;;;;8.80;66.22;100385.63;5029646;28;20071;-40
2023/12/20 09:38:43;;;;;;;10.25;2.28;;;;;;;8.98;65.83;100385.53;5025667;28;20447;-40
2023/12/20 09:41:09;;;;;;;8.63;1.77;;;;;;;8.79;66.33;100376.06;5024409;28;20380;-39
2023/12/20 09:43:37;;;;;;;8.88;2.35;;;;;;;8.73;66.52;100381.66;5024442;28;20056;-39
2023/12/20 09:46:05;;;;;;;5.32;1.58;;;;;;;8.99;65.98;100366.25;5028475;28;20056;-41
2023/12/20 09:48:32;;;;;;;8.15;1.73;;;;;;;9.23;65.46;100368.38;5023464;28;20112;-42
2023/12/20 09:50:57;;;;;;;7.38;1.90;;;;;;;8.83;66.17;100374.97;5020108;28;20433;-40
2023/12/20 09:53:29;;;;;;;8.75;1.75;;;;;;;9.00;66.01;100365.28;5021053;28;20112;-41
2023/12/20 09:55:58;;;;;;;8.85;2.25;;;;;;;9.02;65.83;100352.91;5026949;28;20029;-40
2023/12/20 09:58:24;;;;;;;7.32;2.20;;;;;;;9.20;65.09;100360.66;5031268;28;20238;-42
2023/12/20 10:00:51;;;;;;;8.10;1.95;;;;;;;9.36;64.40;100358.84;5021780;28;20037;-41
2023/12/20 10:03:18;;;;;;;9.00;2.00;;;;;;;9.15;64.87;100372.28;5028019;28;20033;-41
2023/12/20 10:05:44;;;;;;;12.00;2.17;;;;;;;9.16;65.16;100360.00;5021839;28;20706;-39
2023/12/20 10:08:09;;;;;;;13.65;1.95;;;;;;;8.86;66.62;100366.09;5024224;28;20606;-42
2023/12/20 10:10:35;;;;;;;11.85;2.30;;;;;;;8.83;66.00;100342.63;5021879;28;20144;-38
2023/12/20 10:13:01;;;;;;;10.35;2.15;;;;;;;9.13;65.67;100332.16;5023491;28;20048;-42
2023/12/20 10:15:26;;;;;;;3.15;1.17;;;;;;;9.19;65.72;100324.84;5025412;28;20029;-41
2023/12/20 10:17:52;;;;;;;4.70;1.80;;;;;;;9.08;65.59;100328.09;5029232;28;20180;-42
2023/12/20 10:20:17;;;;;;;8.65;2.08;;;;;;;9.24;64.73;100304.44;5023089;28;20044;-39
2023/12/20 10:22:42;;;;;;;7.07;1.90;;;;;;;9.18;64.92;100305.63;5023538;28;20038;-39
2023/12/20 10:25:08;;;;;;;11.85;2.15;;;;;;;9.06;65.05;100304.56;5019284;28;20122;-38
2023/12/20 10:27:34;;;;;;;9.18;1.60;;;;;;;9.03;64.85;100289.00;5023747;28;20427;-41
2023/12/20 10:29:59;;;;;;;11.25;1.42;;;;;;;9.34;64.44;100291.59;5021689;28;20088;-39
2023/12/20 10:32:26;;;;;;;12.77;1.80;;;;;;;9.03;64.99;100310.00;5027428;28;20483;-42
2023/12/20 10:34:53;;;;;;;6.78;2.22;;;;;;;9.40;64.82;100293.84;5021993;28;20092;-40
2023/12/20 10:37:19;;;;;;;7.28;1.58;;;;;;;9.37;64.65;100276.50;5024055;28;20022;-42
2023/12/20 10:39:50;;;;;;;4.38;1.00;;;;;;;9.31;64.74;100268.97;4985981;28;20120;-37
2023/12/20 10:42:16;;;;;;;15.98;3.65;;;;;;;9.45;64.46;100274.25;5020511;28;20025;-41
2023/12/20 10:44:42;;;;;;;9.95;1.30;;;;;;;9.09;64.86;100262.41;5015460;28;20060;-41
2023/12/20 10:47:11;;;;;;;11.77;1.38;;;;;;;9.19;64.63;100256.59;5020649;28;20543;-41
2023/12/20 10:49:39;;;;;;;9.82;2.17;;;;;;;9.26;65.13;100255.31;5024572;28;20472;-41
2023/12/20 10:52:05;;;;;;;11.70;3.33;;;;;;;9.04;65.01;100256.56;5018418;28;20041;-42
2023/12/20 10:54:31;;;;;;;8.75;1.52;;;;;;;9.11;64.81;100244.78;5021228;28;20488;-41
2023/12/20 10:56:58;;;;;;;14.90;2.70;;;;;;;9.55;64.27;100248.25;5017115;28;20033;-41
2023/12/20 10:59:24;;;;;;;10.02;1.48;;;;;;;9.25;64.21;100251.00;5012586;28;20106;-41
2023/12/20 11:01:50;;;;;;;7.53;1.95;;;;;;;9.28;64.88;100240.31;5024183;28;20064;-41
2023/12/20 11:04:25;;;;;;;11.57;1.60;;;;;;;9.35;64.52;100269.66;5024569;28;20078;-41
2023/12/20 11:07:34;;;;;;;14.68;2.42;;;;;;;9.12;64.60;100256.13;5020118;28;20029;-40
2023/12/20 11:10:33;;;;;;;17.50;1.85;;;;;;;9.41;64.67;100246.50;5019052;28;20044;-41
2023/12/20 11:13:14;;;;;;;12.20;2.00;;;;;;;9.32;64.16;100241.78;5022822;28;20052;-40
2023/12/20 11:15:40;;;;;;;7.03;1.80;;;;;;;9.36;64.46;100230.16;5034146;28;20491;-41
2023/12/20 11:18:06;;;;;;;14.45;1.73;;;;;;;9.27;64.16;100228.94;5023029;28;20045;-39
2023/12/20 11:20:42;;;;;;;14.98;1.90;;;;;;;9.34;64.49;100234.66;5020720;28;20026;-40
2023/12/20 11:23:09;;;;;;;13.85;3.45;;;;;;;9.35;64.36;100230.28;5023188;28;20026;-42
2023/12/20 11:25:48;;;;;;;7.05;1.60;;;;;;;9.57;64.09;100221.94;5023250;28;20087;-41